sensor_id;sensor_type;location;lat;lon;timestamp;P1;durP1;ratioP1;P2;durP2;ratioP2
22234;SDS011;11286;45.596;5.284;2023-02-11T00:01:33;71.95;;;44.53;;
22234;SDS011;11286;45.596;5.284;2023-02-11T00:04:00;71.25;;;44.20;;
22234;SDS011;11286;45.596;5.284;2023-02-11T00:06:27;68.50;;;44.05;;
22234;SDS011;11286;45.596;5.284;2023-02-11T00:08:55;69.88;;;45.65;;
22234;SDS011;11286;45.596;5.284;2023-02-11T00:11:21;69.13;;;44.47;;
22234;SDS011;11286;45.596;5.284;2023-02-11T00:13:50;66.30;;;41.67;;
22234;SDS011;11286;45.596;5.284;2023-02-11T00:16:17;65.72;;;41.13;;
22234;SDS011;11286;45.596;5.284;2023-02-11T00:18:44;67.63;;;42.17;;
22234;SDS011;11286;45.596;5.284;2023-02-11T00:21:14;69.30;;;42.28;;
22234;SDS011;11286;45.596;5.284;2023-02-11T00:23:41;73.68;;;43.47;;
22234;SDS011;11286;45.596;5.284;2023-02-11T00:26:15;67.22;;;42.45;;
22234;SDS011;11286;45.596;5.284;2023-02-11T00:28:46;68.78;;;42.72;;
22234;SDS011;11286;45.596;5.284;2023-02-11T00:31:13;69.97;;;43.25;;
22234;SDS011;11286;45.596;5.284;2023-02-11T00:33:39;66.25;;;42.75;;
22234;SDS011;11286;45.596;5.284;2023-02-11T00:36:06;70.18;;;43.92;;
22234;SDS011;11286;45.596;5.284;2023-02-11T00:38:33;69.53;;;42.13;;
22234;SDS011;11286;45.596;5.284;2023-02-11T00:40:59;72.65;;;44.13;;
22234;SDS011;11286;45.596;5.284;2023-02-11T00:43:24;73.15;;;45.85;;
22234;SDS011;11286;45.596;5.284;2023-02-11T00:45:50;68.45;;;42.70;;
22234;SDS011;11286;45.596;5.284;2023-02-11T00:48:16;69.18;;;42.15;;
22234;SDS011;11286;45.596;5.284;2023-02-11T00:50:42;67.65;;;41.65;;
22234;SDS011;11286;45.596;5.284;2023-02-11T00:53:07;67.00;;;40.97;;
22234;SDS011;11286;45.596;5.284;2023-02-11T00:55:33;62.28;;;40.90;;
22234;SDS011;11286;45.596;5.284;2023-02-11T00:57:59;69.22;;;43.38;;
22234;SDS011;11286;45.596;5.284;2023-02-11T01:00:25;67.88;;;43.55;;
22234;SDS011;11286;45.596;5.284;2023-02-11T01:02:51;69.03;;;41.20;;
22234;SDS011;11286;45.596;5.284;2023-02-11T01:05:18;65.05;;;40.75;;
22234;SDS011;11286;45.596;5.284;2023-02-11T01:07:44;67.32;;;41.47;;
22234;SDS011;11286;45.596;5.284;2023-02-11T01:10:10;66.55;;;40.35;;
22234;SDS011;11286;45.596;5.284;2023-02-11T01:12:36;68.65;;;41.35;;
22234;SDS011;11286;45.596;5.284;2023-02-11T01:15:02;70.35;;;42.45;;
22234;SDS011;11286;45.596;5.284;2023-02-11T01:17:29;67.63;;;42.72;;
22234;SDS011;11286;45.596;5.284;2023-02-11T01:19:54;69.22;;;42.42;;
22234;SDS011;11286;45.596;5.284;2023-02-11T01:22:20;72.05;;;43.72;;
22234;SDS011;11286;45.596;5.284;2023-02-11T01:24:46;71.05;;;43.65;;
22234;SDS011;11286;45.596;5.284;2023-02-11T01:27:11;67.35;;;43.90;;
22234;SDS011;11286;45.596;5.284;2023-02-11T01:29:37;69.82;;;43.67;;
22234;SDS011;11286;45.596;5.284;2023-02-11T01:32:03;68.35;;;43.38;;
22234;SDS011;11286;45.596;5.284;2023-02-11T01:34:28;67.30;;;42.35;;
22234;SDS011;11286;45.596;5.284;2023-02-11T01:36:58;68.75;;;43.17;;
22234;SDS011;11286;45.596;5.284;2023-02-11T01:39:24;71.47;;;43.20;;
22234;SDS011;11286;45.596;5.284;2023-02-11T01:41:51;69.35;;;43.47;;
22234;SDS011;11286;45.596;5.284;2023-02-11T01:44:28;69.28;;;44.13;;
22234;SDS011;11286;45.596;5.284;2023-02-11T01:47:00;69.32;;;43.50;;
22234;SDS011;11286;45.596;5.284;2023-02-11T01:49:35;71.28;;;42.60;;
22234;SDS011;11286;45.596;5.284;2023-02-11T01:52:09;71.05;;;43.85;;
22234;SDS011;11286;45.596;5.284;2023-02-11T01:54:45;71.32;;;42.22;;
22234;SDS011;11286;45.596;5.284;2023-02-11T01:57:34;69.53;;;42.30;;
22234;SDS011;11286;45.596;5.284;2023-02-11T02:02:48;69.60;;;43.28;;
22234;SDS011;11286;45.596;5.284;2023-02-11T02:05:20;71.07;;;43.40;;
22234;SDS011;11286;45.596;5.284;2023-02-11T02:10:24;69.40;;;42.80;;
22234;SDS011;11286;45.596;5.284;2023-02-11T02:12:52;67.82;;;41.40;;
22234;SDS011;11286;45.596;5.284;2023-02-11T02:15:19;72.18;;;43.70;;
22234;SDS011;11286;45.596;5.284;2023-02-11T02:25:59;70.07;;;41.90;;
22234;SDS011;11286;45.596;5.284;2023-02-11T02:29:02;71.07;;;42.28;;
22234;SDS011;11286;45.596;5.284;2023-02-11T02:34:35;69.90;;;42.53;;
22234;SDS011;11286;45.596;5.284;2023-02-11T02:37:07;67.28;;;41.15;;
22234;SDS011;11286;45.596;5.284;2023-02-11T02:39:40;69.45;;;42.17;;
22234;SDS011;11286;45.596;5.284;2023-02-11T02:42:06;67.28;;;41.95;;
22234;SDS011;11286;45.596;5.284;2023-02-11T02:44:32;70.88;;;43.35;;
22234;SDS011;11286;45.596;5.284;2023-02-11T02:46:58;70.07;;;42.05;;
22234;SDS011;11286;45.596;5.284;2023-02-11T02:49:23;70.15;;;42.08;;
22234;SDS011;11286;45.596;5.284;2023-02-11T03:08:07;72.47;;;43.75;;
22234;SDS011;11286;45.596;5.284;2023-02-11T03:10:39;75.28;;;44.03;;
22234;SDS011;11286;45.596;5.284;2023-02-11T03:13:08;71.80;;;42.80;;
22234;SDS011;11286;45.596;5.284;2023-02-11T03:15:37;70.70;;;42.97;;
22234;SDS011;11286;45.596;5.284;2023-02-11T03:18:08;72.28;;;44.05;;
22234;SDS011;11286;45.596;5.284;2023-02-11T03:20:36;71.60;;;41.55;;
22234;SDS011;11286;45.596;5.284;2023-02-11T03:23:10;73.93;;;44.05;;
22234;SDS011;11286;45.596;5.284;2023-02-11T03:25:49;70.80;;;42.70;;
22234;SDS011;11286;45.596;5.284;2023-02-11T03:28:39;69.13;;;43.20;;
22234;SDS011;11286;45.596;5.284;2023-02-11T03:39:09;72.15;;;42.15;;
22234;SDS011;11286;45.596;5.284;2023-02-11T03:41:38;68.45;;;42.47;;
22234;SDS011;11286;45.596;5.284;2023-02-11T03:44:06;74.78;;;44.25;;
22234;SDS011;11286;45.596;5.284;2023-02-11T03:46:34;71.05;;;43.45;;
22234;SDS011;11286;45.596;5.284;2023-02-11T03:49:04;73.30;;;44.22;;
22234;SDS011;11286;45.596;5.284;2023-02-11T03:51:33;69.03;;;42.60;;
22234;SDS011;11286;45.596;5.284;2023-02-11T03:54:01;75.63;;;43.55;;
22234;SDS011;11286;45.596;5.284;2023-02-11T03:56:31;71.35;;;42.45;;
22234;SDS011;11286;45.596;5.284;2023-02-11T03:59:01;69.68;;;42.45;;
22234;SDS011;11286;45.596;5.284;2023-02-11T04:01:26;69.22;;;41.92;;
22234;SDS011;11286;45.596;5.284;2023-02-11T04:03:52;74.20;;;44.72;;
22234;SDS011;11286;45.596;5.284;2023-02-11T04:06:18;71.05;;;43.42;;
22234;SDS011;11286;45.596;5.284;2023-02-11T04:08:43;69.50;;;42.67;;
22234;SDS011;11286;45.596;5.284;2023-02-11T04:11:09;69.82;;;41.42;;
22234;SDS011;11286;45.596;5.284;2023-02-11T04:13:34;73.47;;;44.08;;
22234;SDS011;11286;45.596;5.284;2023-02-11T04:16:00;68.43;;;41.58;;
22234;SDS011;11286;45.596;5.284;2023-02-11T04:18:26;71.25;;;43.88;;
22234;SDS011;11286;45.596;5.284;2023-02-11T04:20:51;73.15;;;42.90;;
22234;SDS011;11286;45.596;5.284;2023-02-11T04:23:17;71.18;;;44.28;;
22234;SDS011;11286;45.596;5.284;2023-02-11T04:25:43;73.30;;;43.50;;
22234;SDS011;11286;45.596;5.284;2023-02-11T04:28:08;73.45;;;43.78;;
22234;SDS011;11286;45.596;5.284;2023-02-11T04:30:34;72.72;;;43.42;;
22234;SDS011;11286;45.596;5.284;2023-02-11T04:32:59;70.40;;;43.15;;
22234;SDS011;11286;45.596;5.284;2023-02-11T04:35:25;72.72;;;44.33;;
22234;SDS011;11286;45.596;5.284;2023-02-11T04:37:51;72.60;;;44.30;;
22234;SDS011;11286;45.596;5.284;2023-02-11T04:40:16;71.38;;;42.72;;
22234;SDS011;11286;45.596;5.284;2023-02-11T04:42:42;76.25;;;44.28;;
22234;SDS011;11286;45.596;5.284;2023-02-11T04:45:08;75.43;;;44.47;;
22234;SDS011;11286;45.596;5.284;2023-02-11T04:47:34;74.70;;;44.35;;
22234;SDS011;11286;45.596;5.284;2023-02-11T04:50:01;78.82;;;44.72;;
22234;SDS011;11286;45.596;5.284;2023-02-11T04:52:27;75.25;;;45.05;;
22234;SDS011;11286;45.596;5.284;2023-02-11T04:54:53;78.43;;;44.35;;
22234;SDS011;11286;45.596;5.284;2023-02-11T04:57:18;79.32;;;44.70;;
22234;SDS011;11286;45.596;5.284;2023-02-11T04:59:44;78.80;;;44.72;;
22234;SDS011;11286;45.596;5.284;2023-02-11T05:02:09;74.05;;;44.30;;
22234;SDS011;11286;45.596;5.284;2023-02-11T05:04:35;74.57;;;44.42;;
22234;SDS011;11286;45.596;5.284;2023-02-11T05:07:00;74.57;;;43.28;;
22234;SDS011;11286;45.596;5.284;2023-02-11T05:09:26;77.63;;;44.63;;
22234;SDS011;11286;45.596;5.284;2023-02-11T05:11:52;72.93;;;44.50;;
22234;SDS011;11286;45.596;5.284;2023-02-11T05:14:18;74.68;;;44.22;;
22234;SDS011;11286;45.596;5.284;2023-02-11T05:16:43;72.63;;;43.15;;
22234;SDS011;11286;45.596;5.284;2023-02-11T05:19:09;75.45;;;44.60;;
22234;SDS011;11286;45.596;5.284;2023-02-11T05:21:35;80.80;;;45.78;;
22234;SDS011;11286;45.596;5.284;2023-02-11T05:24:00;77.38;;;44.28;;
22234;SDS011;11286;45.596;5.284;2023-02-11T05:26:26;78.40;;;46.63;;
22234;SDS011;11286;45.596;5.284;2023-02-11T05:28:52;81.22;;;46.42;;
22234;SDS011;11286;45.596;5.284;2023-02-11T05:31:17;76.45;;;45.40;;
22234;SDS011;11286;45.596;5.284;2023-02-11T05:33:43;77.80;;;45.90;;
22234;SDS011;11286;45.596;5.284;2023-02-11T05:36:10;74.13;;;44.08;;
22234;SDS011;11286;45.596;5.284;2023-02-11T05:38:37;78.88;;;46.50;;
22234;SDS011;11286;45.596;5.284;2023-02-11T05:41:04;77.00;;;43.88;;
22234;SDS011;11286;45.596;5.284;2023-02-11T05:43:30;79.18;;;44.63;;
22234;SDS011;11286;45.596;5.284;2023-02-11T05:45:56;77.53;;;45.03;;
22234;SDS011;11286;45.596;5.284;2023-02-11T05:48:22;81.78;;;45.80;;
22234;SDS011;11286;45.596;5.284;2023-02-11T05:50:48;79.35;;;45.90;;
22234;SDS011;11286;45.596;5.284;2023-02-11T05:53:13;79.07;;;46.42;;
22234;SDS011;11286;45.596;5.284;2023-02-11T05:55:39;75.53;;;44.58;;
22234;SDS011;11286;45.596;5.284;2023-02-11T05:58:05;75.38;;;44.72;;
22234;SDS011;11286;45.596;5.284;2023-02-11T06:00:32;79.43;;;47.05;;
22234;SDS011;11286;45.596;5.284;2023-02-11T06:02:57;79.10;;;44.88;;
22234;SDS011;11286;45.596;5.284;2023-02-11T06:05:23;76.80;;;44.28;;
22234;SDS011;11286;45.596;5.284;2023-02-11T06:07:49;82.78;;;46.40;;
22234;SDS011;11286;45.596;5.284;2023-02-11T06:10:14;80.25;;;45.05;;
22234;SDS011;11286;45.596;5.284;2023-02-11T06:12:40;74.97;;;42.85;;
22234;SDS011;11286;45.596;5.284;2023-02-11T06:15:06;80.35;;;45.47;;
22234;SDS011;11286;45.596;5.284;2023-02-11T06:17:32;79.80;;;44.67;;
22234;SDS011;11286;45.596;5.284;2023-02-11T06:19:58;75.63;;;43.72;;
22234;SDS011;11286;45.596;5.284;2023-02-11T06:22:25;75.30;;;45.03;;
22234;SDS011;11286;45.596;5.284;2023-02-11T06:24:51;78.25;;;44.35;;
22234;SDS011;11286;45.596;5.284;2023-02-11T06:27:16;79.55;;;44.95;;
22234;SDS011;11286;45.596;5.284;2023-02-11T06:29:43;78.82;;;46.08;;
22234;SDS011;11286;45.596;5.284;2023-02-11T06:32:09;81.60;;;45.65;;
22234;SDS011;11286;45.596;5.284;2023-02-11T06:34:35;77.15;;;43.42;;
22234;SDS011;11286;45.596;5.284;2023-02-11T06:37:00;86.40;;;47.08;;
22234;SDS011;11286;45.596;5.284;2023-02-11T06:39:26;80.10;;;46.40;;
22234;SDS011;11286;45.596;5.284;2023-02-11T06:41:52;85.95;;;47.92;;
22234;SDS011;11286;45.596;5.284;2023-02-11T06:44:17;82.00;;;46.67;;
22234;SDS011;11286;45.596;5.284;2023-02-11T06:46:43;85.70;;;46.85;;
22234;SDS011;11286;45.596;5.284;2023-02-11T06:49:09;84.70;;;46.58;;
22234;SDS011;11286;45.596;5.284;2023-02-11T06:51:35;86.85;;;47.70;;
22234;SDS011;11286;45.596;5.284;2023-02-11T06:54:01;85.20;;;46.47;;
22234;SDS011;11286;45.596;5.284;2023-02-11T06:56:28;81.15;;;45.03;;
22234;SDS011;11286;45.596;5.284;2023-02-11T06:58:54;82.70;;;46.75;;
22234;SDS011;11286;45.596;5.284;2023-02-11T07:01:20;82.78;;;46.85;;
22234;SDS011;11286;45.596;5.284;2023-02-11T07:03:47;80.55;;;44.95;;
22234;SDS011;11286;45.596;5.284;2023-02-11T07:06:14;76.95;;;44.50;;
22234;SDS011;11286;45.596;5.284;2023-02-11T07:08:43;77.35;;;44.75;;
22234;SDS011;11286;45.596;5.284;2023-02-11T07:11:13;76.80;;;44.83;;
22234;SDS011;11286;45.596;5.284;2023-02-11T07:13:43;81.00;;;46.42;;
22234;SDS011;11286;45.596;5.284;2023-02-11T07:16:09;78.50;;;44.30;;
22234;SDS011;11286;45.596;5.284;2023-02-11T07:18:37;85.45;;;46.13;;
22234;SDS011;11286;45.596;5.284;2023-02-11T07:21:04;73.57;;;44.47;;
22234;SDS011;11286;45.596;5.284;2023-02-11T07:23:30;77.18;;;45.30;;
22234;SDS011;11286;45.596;5.284;2023-02-11T07:25:56;83.65;;;47.08;;
22234;SDS011;11286;45.596;5.284;2023-02-11T07:28:22;81.10;;;46.40;;
22234;SDS011;11286;45.596;5.284;2023-02-11T07:30:48;78.68;;;44.22;;
22234;SDS011;11286;45.596;5.284;2023-02-11T07:33:13;79.25;;;44.70;;
22234;SDS011;11286;45.596;5.284;2023-02-11T07:35:39;76.10;;;44.70;;
22234;SDS011;11286;45.596;5.284;2023-02-11T07:38:04;75.75;;;45.03;;
22234;SDS011;11286;45.596;5.284;2023-02-11T07:40:30;82.22;;;45.63;;
22234;SDS011;11286;45.596;5.284;2023-02-11T07:42:56;78.32;;;46.30;;
22234;SDS011;11286;45.596;5.284;2023-02-11T07:45:21;78.45;;;45.45;;
22234;SDS011;11286;45.596;5.284;2023-02-11T07:47:48;71.18;;;42.70;;
22234;SDS011;11286;45.596;5.284;2023-02-11T07:50:15;71.35;;;42.22;;
22234;SDS011;11286;45.596;5.284;2023-02-11T07:52:41;71.93;;;43.45;;
22234;SDS011;11286;45.596;5.284;2023-02-11T07:55:07;71.63;;;41.95;;
22234;SDS011;11286;45.596;5.284;2023-02-11T07:57:34;71.57;;;42.95;;
22234;SDS011;11286;45.596;5.284;2023-02-11T07:59:59;76.95;;;42.92;;
22234;SDS011;11286;45.596;5.284;2023-02-11T08:02:25;70.35;;;41.80;;
22234;SDS011;11286;45.596;5.284;2023-02-11T08:04:51;75.18;;;42.42;;
22234;SDS011;11286;45.596;5.284;2023-02-11T08:07:17;67.57;;;41.88;;
22234;SDS011;11286;45.596;5.284;2023-02-11T08:09:43;68.88;;;43.67;;
22234;SDS011;11286;45.596;5.284;2023-02-11T08:12:08;69.32;;;43.47;;
22234;SDS011;11286;45.596;5.284;2023-02-11T08:14:34;69.32;;;41.95;;
22234;SDS011;11286;45.596;5.284;2023-02-11T08:17:00;70.85;;;42.85;;
22234;SDS011;11286;45.596;5.284;2023-02-11T08:19:26;69.22;;;41.47;;
22234;SDS011;11286;45.596;5.284;2023-02-11T08:21:54;64.43;;;40.22;;
22234;SDS011;11286;45.596;5.284;2023-02-11T08:24:21;65.75;;;40.50;;
22234;SDS011;11286;45.596;5.284;2023-02-11T08:26:47;63.65;;;40.95;;
22234;SDS011;11286;45.596;5.284;2023-02-11T08:29:13;63.90;;;41.35;;
22234;SDS011;11286;45.596;5.284;2023-02-11T08:31:41;66.63;;;40.42;;
22234;SDS011;11286;45.596;5.284;2023-02-11T08:34:09;64.57;;;40.95;;
22234;SDS011;11286;45.596;5.284;2023-02-11T08:36:36;65.35;;;42.10;;
22234;SDS011;11286;45.596;5.284;2023-02-11T08:39:04;63.88;;;41.83;;
22234;SDS011;11286;45.596;5.284;2023-02-11T08:41:32;62.67;;;43.00;;
22234;SDS011;11286;45.596;5.284;2023-02-11T08:43:59;62.33;;;39.97;;
22234;SDS011;11286;45.596;5.284;2023-02-11T08:46:25;63.60;;;42.53;;
22234;SDS011;11286;45.596;5.284;2023-02-11T08:48:51;63.05;;;42.40;;
22234;SDS011;11286;45.596;5.284;2023-02-11T08:51:18;62.13;;;42.83;;
22234;SDS011;11286;45.596;5.284;2023-02-11T08:53:45;59.33;;;41.65;;
22234;SDS011;11286;45.596;5.284;2023-02-11T08:56:12;66.80;;;43.58;;
22234;SDS011;11286;45.596;5.284;2023-02-11T08:58:38;66.10;;;43.67;;
22234;SDS011;11286;45.596;5.284;2023-02-11T09:03:36;71.53;;;44.15;;
22234;SDS011;11286;45.596;5.284;2023-02-11T09:06:03;74.15;;;44.80;;
22234;SDS011;11286;45.596;5.284;2023-02-11T09:08:32;72.88;;;46.67;;
22234;SDS011;11286;45.596;5.284;2023-02-11T09:11:00;68.60;;;47.10;;
22234;SDS011;11286;45.596;5.284;2023-02-11T09:13:26;66.30;;;44.15;;
22234;SDS011;11286;45.596;5.284;2023-02-11T09:15:51;72.53;;;45.65;;
22234;SDS011;11286;45.596;5.284;2023-02-11T09:18:17;63.75;;;44.17;;
22234;SDS011;11286;45.596;5.284;2023-02-11T09:20:43;64.45;;;44.95;;
22234;SDS011;11286;45.596;5.284;2023-02-11T09:23:08;70.20;;;45.75;;
22234;SDS011;11286;45.596;5.284;2023-02-11T09:25:34;69.13;;;45.88;;
22234;SDS011;11286;45.596;5.284;2023-02-11T09:28:04;68.85;;;46.25;;
22234;SDS011;11286;45.596;5.284;2023-02-11T09:30:29;68.35;;;45.30;;
22234;SDS011;11286;45.596;5.284;2023-02-11T09:32:55;62.25;;;46.20;;
22234;SDS011;11286;45.596;5.284;2023-02-11T09:35:20;64.13;;;47.35;;
22234;SDS011;11286;45.596;5.284;2023-02-11T09:37:46;68.10;;;49.13;;
22234;SDS011;11286;45.596;5.284;2023-02-11T09:40:12;63.70;;;48.80;;
22234;SDS011;11286;45.596;5.284;2023-02-11T09:42:44;66.28;;;49.35;;
22234;SDS011;11286;45.596;5.284;2023-02-11T09:45:17;67.85;;;50.20;;
22234;SDS011;11286;45.596;5.284;2023-02-11T09:47:53;65.05;;;49.53;;
22234;SDS011;11286;45.596;5.284;2023-02-11T09:50:22;65.30;;;50.92;;
22234;SDS011;11286;45.596;5.284;2023-02-11T09:53:06;66.88;;;52.20;;
22234;SDS011;11286;45.596;5.284;2023-02-11T09:55:39;62.28;;;50.08;;
22234;SDS011;11286;45.596;5.284;2023-02-11T09:58:22;63.38;;;50.33;;
22234;SDS011;11286;45.596;5.284;2023-02-11T10:06:34;59.30;;;48.08;;
22234;SDS011;11286;45.596;5.284;2023-02-11T10:11:54;62.40;;;49.25;;
22234;SDS011;11286;45.596;5.284;2023-02-11T10:14:34;60.60;;;50.08;;
22234;SDS011;11286;45.596;5.284;2023-02-11T10:23:09;63.40;;;53.88;;
22234;SDS011;11286;45.596;5.284;2023-02-11T10:25:42;64.88;;;52.47;;
22234;SDS011;11286;45.596;5.284;2023-02-11T10:31:41;57.42;;;50.78;;
22234;SDS011;11286;45.596;5.284;2023-02-11T10:36:38;60.35;;;53.40;;
22234;SDS011;11286;45.596;5.284;2023-02-11T10:39:19;62.72;;;53.20;;
22234;SDS011;11286;45.596;5.284;2023-02-11T10:41:51;60.15;;;53.00;;
22234;SDS011;11286;45.596;5.284;2023-02-11T10:44:30;62.97;;;53.92;;
22234;SDS011;11286;45.596;5.284;2023-02-11T10:47:04;60.90;;;53.47;;
22234;SDS011;11286;45.596;5.284;2023-02-11T10:50:03;58.63;;;50.40;;
22234;SDS011;11286;45.596;5.284;2023-02-11T10:52:49;57.95;;;51.22;;
22234;SDS011;11286;45.596;5.284;2023-02-11T10:55:16;57.97;;;51.67;;
22234;SDS011;11286;45.596;5.284;2023-02-11T10:57:57;59.63;;;52.58;;
22234;SDS011;11286;45.596;5.284;2023-02-11T11:00:33;56.25;;;50.20;;
22234;SDS011;11286;45.596;5.284;2023-02-11T11:03:01;55.30;;;49.20;;
22234;SDS011;11286;45.596;5.284;2023-02-11T11:05:34;53.88;;;47.58;;
22234;SDS011;11286;45.596;5.284;2023-02-11T11:08:05;51.88;;;46.25;;
22234;SDS011;11286;45.596;5.284;2023-02-11T11:10:34;53.25;;;47.42;;
22234;SDS011;11286;45.596;5.284;2023-02-11T11:13:00;53.95;;;48.17;;
22234;SDS011;11286;45.596;5.284;2023-02-11T11:15:28;57.13;;;50.85;;
22234;SDS011;11286;45.596;5.284;2023-02-11T11:18:15;56.65;;;50.45;;
22234;SDS011;11286;45.596;5.284;2023-02-11T11:20:55;59.28;;;52.97;;
22234;SDS011;11286;45.596;5.284;2023-02-11T11:23:24;58.38;;;51.47;;
22234;SDS011;11286;45.596;5.284;2023-02-11T11:26:11;56.75;;;50.75;;
22234;SDS011;11286;45.596;5.284;2023-02-11T11:28:38;52.78;;;47.22;;
22234;SDS011;11286;45.596;5.284;2023-02-11T11:31:12;56.08;;;50.20;;
22234;SDS011;11286;45.596;5.284;2023-02-11T11:33:43;53.60;;;47.92;;
22234;SDS011;11286;45.596;5.284;2023-02-11T11:36:10;52.42;;;47.03;;
22234;SDS011;11286;45.596;5.284;2023-02-11T11:38:43;54.88;;;48.97;;
22234;SDS011;11286;45.596;5.284;2023-02-11T11:41:23;51.78;;;46.28;;
22234;SDS011;11286;45.596;5.284;2023-02-11T11:44:01;54.00;;;48.33;;
22234;SDS011;11286;45.596;5.284;2023-02-11T11:46:45;68.07;;;58.67;;
22234;SDS011;11286;45.596;5.284;2023-02-11T11:49:34;52.17;;;46.78;;
22234;SDS011;11286;45.596;5.284;2023-02-11T11:55:02;55.28;;;49.33;;
22234;SDS011;11286;45.596;5.284;2023-02-11T11:57:36;55.42;;;49.42;;
22234;SDS011;11286;45.596;5.284;2023-02-11T12:00:03;55.35;;;49.53;;
22234;SDS011;11286;45.596;5.284;2023-02-11T12:11:11;52.58;;;47.05;;
22234;SDS011;11286;45.596;5.284;2023-02-11T12:24:19;53.40;;;47.95;;
22234;SDS011;11286;45.596;5.284;2023-02-11T12:35:16;49.20;;;43.97;;
22234;SDS011;11286;45.596;5.284;2023-02-11T12:37:50;46.53;;;41.78;;
22234;SDS011;11286;45.596;5.284;2023-02-11T12:51:04;50.05;;;44.97;;
22234;SDS011;11286;45.596;5.284;2023-02-11T12:56:34;51.75;;;46.50;;
22234;SDS011;11286;45.596;5.284;2023-02-11T12:59:01;52.17;;;46.83;;
22234;SDS011;11286;45.596;5.284;2023-02-11T13:01:33;49.40;;;44.20;;
22234;SDS011;11286;45.596;5.284;2023-02-11T13:04:14;51.15;;;46.03;;
22234;SDS011;11286;45.596;5.284;2023-02-11T13:06:50;52.97;;;47.70;;
22234;SDS011;11286;45.596;5.284;2023-02-11T13:09:23;51.83;;;46.55;;
22234;SDS011;11286;45.596;5.284;2023-02-11T13:11:57;52.53;;;47.10;;
22234;SDS011;11286;45.596;5.284;2023-02-11T13:14:46;50.42;;;45.28;;
22234;SDS011;11286;45.596;5.284;2023-02-11T13:17:20;50.85;;;45.55;;
22234;SDS011;11286;45.596;5.284;2023-02-11T13:20:11;51.42;;;46.22;;
22234;SDS011;11286;45.596;5.284;2023-02-11T13:22:55;48.03;;;43.03;;
22234;SDS011;11286;45.596;5.284;2023-02-11T13:31:00;48.65;;;43.53;;
22234;SDS011;11286;45.596;5.284;2023-02-11T13:33:30;47.88;;;42.97;;
22234;SDS011;11286;45.596;5.284;2023-02-11T13:38:27;48.25;;;43.28;;
22234;SDS011;11286;45.596;5.284;2023-02-11T13:41:00;47.22;;;42.42;;
22234;SDS011;11286;45.596;5.284;2023-02-11T13:43:28;47.05;;;42.15;;
22234;SDS011;11286;45.596;5.284;2023-02-11T13:46:00;48.45;;;43.53;;
22234;SDS011;11286;45.596;5.284;2023-02-11T13:51:07;47.00;;;42.15;;
22234;SDS011;11286;45.596;5.284;2023-02-11T13:53:48;47.90;;;42.78;;
22234;SDS011;11286;45.596;5.284;2023-02-11T13:56:36;46.22;;;41.53;;
22234;SDS011;11286;45.596;5.284;2023-02-11T13:59:49;46.30;;;41.47;;
22234;SDS011;11286;45.596;5.284;2023-02-11T14:10:56;45.72;;;40.83;;
22234;SDS011;11286;45.596;5.284;2023-02-11T14:16:08;45.30;;;40.67;;
22234;SDS011;11286;45.596;5.284;2023-02-11T14:23:51;45.58;;;40.85;;
22234;SDS011;11286;45.596;5.284;2023-02-11T14:28:45;45.10;;;40.28;;
22234;SDS011;11286;45.596;5.284;2023-02-11T14:31:17;46.80;;;41.97;;
22234;SDS011;11286;45.596;5.284;2023-02-11T14:36:53;45.90;;;40.90;;
22234;SDS011;11286;45.596;5.284;2023-02-11T14:42:21;42.65;;;38.15;;
22234;SDS011;11286;45.596;5.284;2023-02-11T14:44:51;45.00;;;40.05;;
22234;SDS011;11286;45.596;5.284;2023-02-11T14:47:22;45.05;;;40.22;;
22234;SDS011;11286;45.596;5.284;2023-02-11T14:49:54;44.22;;;39.58;;
22234;SDS011;11286;45.596;5.284;2023-02-11T14:54:49;42.55;;;38.15;;
22234;SDS011;11286;45.596;5.284;2023-02-11T14:57:17;40.88;;;36.42;;
22234;SDS011;11286;45.596;5.284;2023-02-11T14:59:54;43.30;;;38.70;;
22234;SDS011;11286;45.596;5.284;2023-02-11T15:02:31;43.00;;;38.40;;
22234;SDS011;11286;45.596;5.284;2023-02-11T15:05:23;41.03;;;36.65;;
22234;SDS011;11286;45.596;5.284;2023-02-11T15:07:52;42.17;;;37.70;;
22234;SDS011;11286;45.596;5.284;2023-02-11T15:13:05;44.63;;;38.30;;
22234;SDS011;11286;45.596;5.284;2023-02-11T15:15:33;44.08;;;39.28;;
22234;SDS011;11286;45.596;5.284;2023-02-11T15:18:01;42.35;;;37.30;;
22234;SDS011;11286;45.596;5.284;2023-02-11T15:20:29;42.25;;;37.65;;
22234;SDS011;11286;45.596;5.284;2023-02-11T15:22:57;43.47;;;36.75;;
22234;SDS011;11286;45.596;5.284;2023-02-11T15:25:26;42.53;;;37.90;;
22234;SDS011;11286;45.596;5.284;2023-02-11T15:27:56;42.30;;;37.17;;
22234;SDS011;11286;45.596;5.284;2023-02-11T15:32:52;42.30;;;37.63;;
22234;SDS011;11286;45.596;5.284;2023-02-11T15:35:27;44.38;;;37.65;;
22234;SDS011;11286;45.596;5.284;2023-02-11T15:37:59;43.35;;;38.65;;
22234;SDS011;11286;45.596;5.284;2023-02-11T15:40:27;45.10;;;38.35;;
22234;SDS011;11286;45.596;5.284;2023-02-11T15:42:57;43.67;;;38.50;;
22234;SDS011;11286;45.596;5.284;2023-02-11T15:45:33;43.67;;;37.85;;
22234;SDS011;11286;45.596;5.284;2023-02-11T15:50:38;48.83;;;40.15;;
22234;SDS011;11286;45.596;5.284;2023-02-11T15:55:45;47.55;;;38.67;;
22234;SDS011;11286;45.596;5.284;2023-02-11T15:58:13;44.58;;;38.67;;
22234;SDS011;11286;45.596;5.284;2023-02-11T16:00:44;43.00;;;37.08;;
22234;SDS011;11286;45.596;5.284;2023-02-11T16:03:25;44.90;;;38.80;;
22234;SDS011;11286;45.596;5.284;2023-02-11T16:05:56;44.25;;;37.83;;
22234;SDS011;11286;45.596;5.284;2023-02-11T16:08:58;46.13;;;38.58;;
22234;SDS011;11286;45.596;5.284;2023-02-11T16:11:30;47.65;;;39.03;;
22234;SDS011;11286;45.596;5.284;2023-02-11T16:13:57;45.92;;;38.67;;
22234;SDS011;11286;45.596;5.284;2023-02-11T16:16:30;45.03;;;38.60;;
22234;SDS011;11286;45.596;5.284;2023-02-11T16:18:59;45.33;;;38.67;;
22234;SDS011;11286;45.596;5.284;2023-02-11T16:21:27;47.67;;;38.97;;
22234;SDS011;11286;45.596;5.284;2023-02-11T16:23:59;50.17;;;40.65;;
22234;SDS011;11286;45.596;5.284;2023-02-11T16:26:27;49.00;;;39.15;;
22234;SDS011;11286;45.596;5.284;2023-02-11T16:29:06;47.97;;;39.03;;
22234;SDS011;11286;45.596;5.284;2023-02-11T16:31:41;49.05;;;38.78;;
22234;SDS011;11286;45.596;5.284;2023-02-11T16:34:19;49.00;;;39.92;;
22234;SDS011;11286;45.596;5.284;2023-02-11T16:36:48;50.05;;;40.00;;
22234;SDS011;11286;45.596;5.284;2023-02-11T16:39:16;49.75;;;40.65;;
22234;SDS011;11286;45.596;5.284;2023-02-11T16:41:42;51.72;;;41.05;;
22234;SDS011;11286;45.596;5.284;2023-02-11T16:44:08;48.75;;;40.08;;
22234;SDS011;11286;45.596;5.284;2023-02-11T16:46:33;52.67;;;40.28;;
22234;SDS011;11286;45.596;5.284;2023-02-11T16:49:13;50.58;;;41.92;;
22234;SDS011;11286;45.596;5.284;2023-02-11T16:51:40;52.47;;;41.35;;
22234;SDS011;11286;45.596;5.284;2023-02-11T16:54:13;50.28;;;39.75;;
22234;SDS011;11286;45.596;5.284;2023-02-11T16:56:40;52.75;;;40.47;;
22234;SDS011;11286;45.596;5.284;2023-02-11T16:59:06;50.25;;;40.15;;
22234;SDS011;11286;45.596;5.284;2023-02-11T17:01:32;53.72;;;40.83;;
22234;SDS011;11286;45.596;5.284;2023-02-11T17:03:58;55.45;;;43.00;;
22234;SDS011;11286;45.596;5.284;2023-02-11T17:06:24;56.03;;;41.55;;
22234;SDS011;11286;45.596;5.284;2023-02-11T17:08:51;55.47;;;43.00;;
22234;SDS011;11286;45.596;5.284;2023-02-11T17:11:17;55.80;;;42.85;;